This is the latest recevied weather packets stored in our database for station/object EA7AZH-5. If no packets are shown the sender has not sent any weather packets the latest 10 day(s).
| Time | Temp. | Humidity | Pressure | Rain* | Wind** | Luminosity | Snow |
|---|---|---|---|---|---|---|---|
| 1777899830 | 25° C | 45% | 1012.3 hPa | - | - | - | - |
| 1777897430 | 24.44° C | 45% | 1012.6 hPa | - | - | - | - |
| 1777892629 | 25.56° C | 44% | 1013.1 hPa | - | - | - | - |
| 1777887229 | 26.11° C | 40% | 1013.4 hPa | - | - | - | - |
| 1777886629 | 26.11° C | 42% | 1013.4 hPa | - | - | - | - |
| 1777886029 | 26.11° C | 42% | 1013.3 hPa | - | - | - | - |
| 1777884234 | 25.56° C | 44% | 1013.2 hPa | - | - | - | - |
| 1777882429 | 24.44° C | 47% | 1013 hPa | - | - | - | - |
| 1777880629 | 24.44° C | 46% | 1012.8 hPa | - | - | - | - |
| 1777877029 | 21.67° C | 52% | 1012.2 hPa | - | - | - | - |
| 1777876429 | 21.11° C | 52% | 1012.2 hPa | - | - | - | - |
| 1777875829 | 21.11° C | 53% | 1012.1 hPa | - | - | - | - |
| 1777874629 | 20.56° C | 53% | 1011.9 hPa | - | - | - | - |
| 1777869229 | 21.67° C | 50% | 1011.4 hPa | - | - | - | - |
| 1777861428 | 21.11° C | 56% | 1011.5 hPa | - | - | - | - |
| 1777860228 | 21.11° C | 57% | 1011.6 hPa | - | - | - | - |
| 1777859628 | 21.11° C | 57% | 1011.6 hPa | - | - | - | - |
| 1777858428 | 21.67° C | 57% | 1011.6 hPa | - | - | - | - |
| 1777856028 | 21.67° C | 59% | 1012.1 hPa | - | - | - | - |
| 1777853028 | 22.22° C | 57% | 1012.3 hPa | - | - | - | - |
| 1777850028 | 22.22° C | 56% | 1012.5 hPa | - | - | - | - |
| 1777847028 | 22.78° C | 57% | 1012.6 hPa | - | - | - | - |
| 1777844027 | 22.78° C | 57% | 1012.6 hPa | - | - | - | - |
| 1777842827 | 23.33° C | 57% | 1012.6 hPa | - | - | - | - |
| 1777838627 | 22.22° C | 61% | 1011.9 hPa | - | - | - | - |
* Rain since midnight (hover to see other rain measurements)
** Current wind speed in m/s (hover to see current wind gust speed)